sensor_id;sensor_type;location;lat;lon;timestamp;P1;durP1;ratioP1;P2;durP2;ratioP2
16270;SDS011;8243;49.048;8.396;2024-01-30T00:01:13;9.57;;;7.27;;
16270;SDS011;8243;49.048;8.396;2024-01-30T00:03:39;10.10;;;7.50;;
16270;SDS011;8243;49.048;8.396;2024-01-30T00:06:04;12.30;;;7.80;;
16270;SDS011;8243;49.048;8.396;2024-01-30T00:08:30;8.73;;;6.73;;
16270;SDS011;8243;49.048;8.396;2024-01-30T00:11:08;9.13;;;7.30;;
16270;SDS011;8243;49.048;8.396;2024-01-30T00:13:33;8.70;;;6.60;;
16270;SDS011;8243;49.048;8.396;2024-01-30T00:15:59;9.23;;;7.67;;
16270;SDS011;8243;49.048;8.396;2024-01-30T00:18:24;9.87;;;7.03;;
16270;SDS011;8243;49.048;8.396;2024-01-30T00:20:50;8.37;;;7.17;;
16270;SDS011;8243;49.048;8.396;2024-01-30T00:23:16;8.57;;;7.30;;
16270;SDS011;8243;49.048;8.396;2024-01-30T00:25:41;10.73;;;7.53;;
16270;SDS011;8243;49.048;8.396;2024-01-30T00:28:07;8.53;;;7.13;;
16270;SDS011;8243;49.048;8.396;2024-01-30T00:30:32;9.67;;;7.30;;
16270;SDS011;8243;49.048;8.396;2024-01-30T00:32:58;10.07;;;7.03;;
16270;SDS011;8243;49.048;8.396;2024-01-30T00:35:24;9.13;;;7.23;;
16270;SDS011;8243;49.048;8.396;2024-01-30T00:37:50;8.63;;;7.60;;
16270;SDS011;8243;49.048;8.396;2024-01-30T00:40:15;9.10;;;6.67;;
16270;SDS011;8243;49.048;8.396;2024-01-30T00:42:43;8.77;;;6.90;;
16270;SDS011;8243;49.048;8.396;2024-01-30T00:45:11;9.30;;;6.90;;
16270;SDS011;8243;49.048;8.396;2024-01-30T00:47:38;8.17;;;6.57;;
16270;SDS011;8243;49.048;8.396;2024-01-30T00:50:04;9.00;;;6.47;;
16270;SDS011;8243;49.048;8.396;2024-01-30T00:52:30;9.27;;;6.83;;
16270;SDS011;8243;49.048;8.396;2024-01-30T00:54:57;9.50;;;7.03;;
16270;SDS011;8243;49.048;8.396;2024-01-30T00:57:22;9.10;;;7.63;;
16270;SDS011;8243;49.048;8.396;2024-01-30T00:59:50;10.17;;;7.30;;
16270;SDS011;8243;49.048;8.396;2024-01-30T01:02:15;8.60;;;7.03;;
16270;SDS011;8243;49.048;8.396;2024-01-30T01:04:42;9.03;;;7.33;;
16270;SDS011;8243;49.048;8.396;2024-01-30T01:07:09;8.87;;;6.60;;
16270;SDS011;8243;49.048;8.396;2024-01-30T01:09:34;9.50;;;7.40;;
16270;SDS011;8243;49.048;8.396;2024-01-30T01:12:00;9.33;;;6.93;;
16270;SDS011;8243;49.048;8.396;2024-01-30T01:14:26;9.70;;;7.03;;
16270;SDS011;8243;49.048;8.396;2024-01-30T01:16:51;8.70;;;6.90;;
16270;SDS011;8243;49.048;8.396;2024-01-30T01:19:17;8.20;;;6.67;;
16270;SDS011;8243;49.048;8.396;2024-01-30T01:21:43;8.93;;;6.90;;
16270;SDS011;8243;49.048;8.396;2024-01-30T01:24:08;10.47;;;6.77;;
16270;SDS011;8243;49.048;8.396;2024-01-30T01:26:34;8.73;;;7.23;;
16270;SDS011;8243;49.048;8.396;2024-01-30T01:28:59;7.53;;;6.23;;
16270;SDS011;8243;49.048;8.396;2024-01-30T01:31:25;7.50;;;6.47;;
16270;SDS011;8243;49.048;8.396;2024-01-30T01:33:54;8.13;;;6.23;;
16270;SDS011;8243;49.048;8.396;2024-01-30T01:36:20;10.47;;;6.60;;
16270;SDS011;8243;49.048;8.396;2024-01-30T01:38:51;9.37;;;6.80;;
16270;SDS011;8243;49.048;8.396;2024-01-30T01:41:17;8.90;;;7.07;;
16270;SDS011;8243;49.048;8.396;2024-01-30T01:43:43;10.73;;;7.20;;
16270;SDS011;8243;49.048;8.396;2024-01-30T01:46:09;9.30;;;7.20;;
16270;SDS011;8243;49.048;8.396;2024-01-30T01:48:34;7.83;;;5.97;;
16270;SDS011;8243;49.048;8.396;2024-01-30T01:51:01;9.63;;;6.67;;
16270;SDS011;8243;49.048;8.396;2024-01-30T01:53:27;12.10;;;7.23;;
16270;SDS011;8243;49.048;8.396;2024-01-30T01:55:53;7.87;;;6.33;;
16270;SDS011;8243;49.048;8.396;2024-01-30T01:58:19;7.10;;;6.40;;
16270;SDS011;8243;49.048;8.396;2024-01-30T02:00:47;9.40;;;7.47;;
16270;SDS011;8243;49.048;8.396;2024-01-30T02:03:12;9.77;;;7.57;;
16270;SDS011;8243;49.048;8.396;2024-01-30T02:05:39;11.63;;;7.13;;
16270;SDS011;8243;49.048;8.396;2024-01-30T02:08:06;9.47;;;7.67;;
16270;SDS011;8243;49.048;8.396;2024-01-30T02:10:33;8.87;;;7.00;;
16270;SDS011;8243;49.048;8.396;2024-01-30T02:12:59;9.23;;;7.77;;
16270;SDS011;8243;49.048;8.396;2024-01-30T02:15:27;9.00;;;7.70;;
16270;SDS011;8243;49.048;8.396;2024-01-30T02:17:54;9.53;;;7.77;;
16270;SDS011;8243;49.048;8.396;2024-01-30T02:20:19;10.13;;;7.53;;
16270;SDS011;8243;49.048;8.396;2024-01-30T02:22:46;9.60;;;7.80;;
16270;SDS011;8243;49.048;8.396;2024-01-30T02:25:11;8.67;;;6.83;;
16270;SDS011;8243;49.048;8.396;2024-01-30T02:27:37;10.03;;;7.57;;
16270;SDS011;8243;49.048;8.396;2024-01-30T02:30:03;9.60;;;7.30;;
16270;SDS011;8243;49.048;8.396;2024-01-30T02:32:28;9.00;;;7.73;;
16270;SDS011;8243;49.048;8.396;2024-01-30T02:34:54;9.93;;;7.50;;
16270;SDS011;8243;49.048;8.396;2024-01-30T02:37:20;7.77;;;6.63;;
16270;SDS011;8243;49.048;8.396;2024-01-30T02:39:45;8.73;;;7.13;;
16270;SDS011;8243;49.048;8.396;2024-01-30T02:42:11;8.80;;;7.30;;
16270;SDS011;8243;49.048;8.396;2024-01-30T02:44:36;11.87;;;7.60;;
16270;SDS011;8243;49.048;8.396;2024-01-30T02:47:02;8.60;;;6.97;;
16270;SDS011;8243;49.048;8.396;2024-01-30T02:49:27;11.13;;;7.33;;
16270;SDS011;8243;49.048;8.396;2024-01-30T02:51:53;11.10;;;7.50;;
16270;SDS011;8243;49.048;8.396;2024-01-30T02:54:20;9.70;;;7.40;;
16270;SDS011;8243;49.048;8.396;2024-01-30T02:56:45;9.37;;;7.17;;
16270;SDS011;8243;49.048;8.396;2024-01-30T02:59:11;8.47;;;7.33;;
16270;SDS011;8243;49.048;8.396;2024-01-30T03:01:45;9.93;;;7.30;;
16270;SDS011;8243;49.048;8.396;2024-01-30T03:04:11;9.53;;;7.67;;
16270;SDS011;8243;49.048;8.396;2024-01-30T03:06:37;7.60;;;6.70;;
16270;SDS011;8243;49.048;8.396;2024-01-30T03:09:03;9.20;;;6.93;;
16270;SDS011;8243;49.048;8.396;2024-01-30T03:11:36;8.03;;;7.20;;
16270;SDS011;8243;49.048;8.396;2024-01-30T03:14:03;9.77;;;7.20;;
16270;SDS011;8243;49.048;8.396;2024-01-30T03:16:29;10.90;;;7.73;;
16270;SDS011;8243;49.048;8.396;2024-01-30T03:18:56;9.47;;;7.70;;
16270;SDS011;8243;49.048;8.396;2024-01-30T03:21:21;11.13;;;7.63;;
16270;SDS011;8243;49.048;8.396;2024-01-30T03:23:47;8.97;;;7.20;;
16270;SDS011;8243;49.048;8.396;2024-01-30T03:26:12;9.47;;;6.80;;
16270;SDS011;8243;49.048;8.396;2024-01-30T03:28:39;7.33;;;6.27;;
16270;SDS011;8243;49.048;8.396;2024-01-30T03:31:05;8.70;;;7.30;;
16270;SDS011;8243;49.048;8.396;2024-01-30T03:33:31;11.10;;;7.57;;
16270;SDS011;8243;49.048;8.396;2024-01-30T03:35:57;8.67;;;7.13;;
16270;SDS011;8243;49.048;8.396;2024-01-30T03:38:22;7.77;;;6.97;;
16270;SDS011;8243;49.048;8.396;2024-01-30T03:40:48;9.83;;;7.30;;
16270;SDS011;8243;49.048;8.396;2024-01-30T03:43:13;7.47;;;6.40;;
16270;SDS011;8243;49.048;8.396;2024-01-30T03:45:39;7.97;;;6.70;;
16270;SDS011;8243;49.048;8.396;2024-01-30T03:48:04;10.47;;;7.43;;
16270;SDS011;8243;49.048;8.396;2024-01-30T03:50:30;8.20;;;6.80;;
16270;SDS011;8243;49.048;8.396;2024-01-30T03:52:56;8.80;;;6.57;;
16270;SDS011;8243;49.048;8.396;2024-01-30T03:55:21;8.03;;;6.27;;
16270;SDS011;8243;49.048;8.396;2024-01-30T03:57:47;8.37;;;6.40;;
16270;SDS011;8243;49.048;8.396;2024-01-30T04:00:12;8.80;;;6.80;;
16270;SDS011;8243;49.048;8.396;2024-01-30T04:02:39;10.10;;;6.93;;
16270;SDS011;8243;49.048;8.396;2024-01-30T04:05:05;7.53;;;6.23;;
16270;SDS011;8243;49.048;8.396;2024-01-30T04:07:31;9.90;;;6.70;;
16270;SDS011;8243;49.048;8.396;2024-01-30T04:09:57;8.77;;;6.67;;
16270;SDS011;8243;49.048;8.396;2024-01-30T04:12:22;8.13;;;6.57;;
16270;SDS011;8243;49.048;8.396;2024-01-30T04:14:48;9.50;;;6.00;;
16270;SDS011;8243;49.048;8.396;2024-01-30T04:17:13;9.90;;;7.60;;
16270;SDS011;8243;49.048;8.396;2024-01-30T04:19:39;10.60;;;6.60;;
16270;SDS011;8243;49.048;8.396;2024-01-30T04:22:05;7.30;;;6.40;;
16270;SDS011;8243;49.048;8.396;2024-01-30T04:24:31;8.13;;;6.43;;
16270;SDS011;8243;49.048;8.396;2024-01-30T04:26:56;8.53;;;6.80;;
16270;SDS011;8243;49.048;8.396;2024-01-30T04:29:22;8.40;;;6.70;;
16270;SDS011;8243;49.048;8.396;2024-01-30T04:31:47;8.87;;;7.00;;
16270;SDS011;8243;49.048;8.396;2024-01-30T04:34:13;12.73;;;7.17;;
16270;SDS011;8243;49.048;8.396;2024-01-30T04:36:38;8.73;;;7.27;;
16270;SDS011;8243;49.048;8.396;2024-01-30T04:39:04;7.73;;;6.53;;
16270;SDS011;8243;49.048;8.396;2024-01-30T04:41:30;8.33;;;7.20;;
16270;SDS011;8243;49.048;8.396;2024-01-30T04:43:57;9.17;;;6.73;;
16270;SDS011;8243;49.048;8.396;2024-01-30T04:46:23;8.43;;;6.33;;
16270;SDS011;8243;49.048;8.396;2024-01-30T04:48:48;10.80;;;6.57;;
16270;SDS011;8243;49.048;8.396;2024-01-30T04:51:14;9.80;;;6.57;;
16270;SDS011;8243;49.048;8.396;2024-01-30T04:53:39;8.40;;;5.83;;
16270;SDS011;8243;49.048;8.396;2024-01-30T04:56:05;9.67;;;6.60;;
16270;SDS011;8243;49.048;8.396;2024-01-30T04:58:31;8.33;;;6.60;;
16270;SDS011;8243;49.048;8.396;2024-01-30T05:00:56;7.57;;;6.30;;
16270;SDS011;8243;49.048;8.396;2024-01-30T05:03:22;10.93;;;7.10;;
16270;SDS011;8243;49.048;8.396;2024-01-30T05:05:49;9.67;;;6.50;;
16270;SDS011;8243;49.048;8.396;2024-01-30T05:08:14;9.77;;;6.73;;
16270;SDS011;8243;49.048;8.396;2024-01-30T05:10:40;9.10;;;7.03;;
16270;SDS011;8243;49.048;8.396;2024-01-30T05:13:05;9.43;;;7.10;;
16270;SDS011;8243;49.048;8.396;2024-01-30T05:15:31;9.03;;;6.57;;
16270;SDS011;8243;49.048;8.396;2024-01-30T05:17:56;9.83;;;7.10;;
16270;SDS011;8243;49.048;8.396;2024-01-30T05:20:22;7.97;;;6.50;;
16270;SDS011;8243;49.048;8.396;2024-01-30T05:22:47;12.07;;;6.63;;
16270;SDS011;8243;49.048;8.396;2024-01-30T05:25:13;8.07;;;6.03;;
16270;SDS011;8243;49.048;8.396;2024-01-30T05:27:39;7.90;;;6.67;;
16270;SDS011;8243;49.048;8.396;2024-01-30T05:30:05;7.77;;;6.10;;
16270;SDS011;8243;49.048;8.396;2024-01-30T05:32:31;8.40;;;6.50;;
16270;SDS011;8243;49.048;8.396;2024-01-30T05:34:57;9.57;;;6.70;;
16270;SDS011;8243;49.048;8.396;2024-01-30T05:37:23;8.73;;;6.13;;
16270;SDS011;8243;49.048;8.396;2024-01-30T05:39:48;7.50;;;6.43;;
16270;SDS011;8243;49.048;8.396;2024-01-30T05:42:14;8.10;;;6.33;;
16270;SDS011;8243;49.048;8.396;2024-01-30T05:44:41;6.70;;;5.60;;
16270;SDS011;8243;49.048;8.396;2024-01-30T05:47:07;7.37;;;6.03;;
16270;SDS011;8243;49.048;8.396;2024-01-30T05:49:33;10.23;;;6.17;;
16270;SDS011;8243;49.048;8.396;2024-01-30T05:51:58;8.00;;;6.10;;
16270;SDS011;8243;49.048;8.396;2024-01-30T05:54:24;8.83;;;5.90;;
16270;SDS011;8243;49.048;8.396;2024-01-30T05:56:49;7.93;;;5.73;;
16270;SDS011;8243;49.048;8.396;2024-01-30T05:59:15;7.83;;;6.20;;
16270;SDS011;8243;49.048;8.396;2024-01-30T06:01:47;6.47;;;5.67;;
16270;SDS011;8243;49.048;8.396;2024-01-30T06:04:13;6.50;;;5.87;;
16270;SDS011;8243;49.048;8.396;2024-01-30T06:06:38;9.07;;;5.87;;
16270;SDS011;8243;49.048;8.396;2024-01-30T06:09:04;8.03;;;5.90;;
16270;SDS011;8243;49.048;8.396;2024-01-30T06:11:30;8.23;;;6.30;;
16270;SDS011;8243;49.048;8.396;2024-01-30T06:13:56;8.37;;;6.17;;
16270;SDS011;8243;49.048;8.396;2024-01-30T06:16:21;8.00;;;6.03;;
16270;SDS011;8243;49.048;8.396;2024-01-30T06:18:47;8.83;;;5.87;;
16270;SDS011;8243;49.048;8.396;2024-01-30T06:21:13;8.10;;;6.20;;
16270;SDS011;8243;49.048;8.396;2024-01-30T06:23:39;7.93;;;6.20;;
16270;SDS011;8243;49.048;8.396;2024-01-30T06:26:05;8.00;;;6.13;;
16270;SDS011;8243;49.048;8.396;2024-01-30T06:28:31;8.50;;;6.60;;
16270;SDS011;8243;49.048;8.396;2024-01-30T06:30:57;7.67;;;6.03;;
16270;SDS011;8243;49.048;8.396;2024-01-30T06:33:22;9.30;;;6.90;;
16270;SDS011;8243;49.048;8.396;2024-01-30T06:35:48;7.47;;;6.50;;
16270;SDS011;8243;49.048;8.396;2024-01-30T06:38:14;9.07;;;6.37;;
16270;SDS011;8243;49.048;8.396;2024-01-30T06:40:40;6.77;;;6.00;;
16270;SDS011;8243;49.048;8.396;2024-01-30T06:43:06;9.67;;;6.47;;
16270;SDS011;8243;49.048;8.396;2024-01-30T06:45:32;7.47;;;5.83;;
16270;SDS011;8243;49.048;8.396;2024-01-30T06:47:59;7.77;;;6.33;;
16270;SDS011;8243;49.048;8.396;2024-01-30T06:50:32;7.30;;;5.40;;
16270;SDS011;8243;49.048;8.396;2024-01-30T06:52:58;7.50;;;5.43;;
16270;SDS011;8243;49.048;8.396;2024-01-30T06:55:23;6.67;;;5.97;;
16270;SDS011;8243;49.048;8.396;2024-01-30T06:57:49;9.50;;;5.80;;
16270;SDS011;8243;49.048;8.396;2024-01-30T07:00:15;6.50;;;5.30;;
16270;SDS011;8243;49.048;8.396;2024-01-30T07:02:41;7.00;;;5.83;;
16270;SDS011;8243;49.048;8.396;2024-01-30T07:05:06;7.37;;;5.50;;
16270;SDS011;8243;49.048;8.396;2024-01-30T07:07:32;12.10;;;8.90;;
16270;SDS011;8243;49.048;8.396;2024-01-30T07:12:40;17.00;;;7.47;;
16270;SDS011;8243;49.048;8.396;2024-01-30T07:15:08;25.57;;;16.57;;
16270;SDS011;8243;49.048;8.396;2024-01-30T07:17:35;15.97;;;11.83;;
16270;SDS011;8243;49.048;8.396;2024-01-30T07:20:01;9.17;;;8.20;;
16270;SDS011;8243;49.048;8.396;2024-01-30T07:22:28;14.77;;;10.07;;
16270;SDS011;8243;49.048;8.396;2024-01-30T07:24:55;10.97;;;7.47;;
16270;SDS011;8243;49.048;8.396;2024-01-30T07:27:20;13.03;;;9.40;;
16270;SDS011;8243;49.048;8.396;2024-01-30T07:29:46;9.60;;;8.70;;
16270;SDS011;8243;49.048;8.396;2024-01-30T07:32:12;9.23;;;7.30;;
16270;SDS011;8243;49.048;8.396;2024-01-30T07:34:38;8.73;;;5.67;;
16270;SDS011;8243;49.048;8.396;2024-01-30T07:37:03;6.33;;;5.13;;
16270;SDS011;8243;49.048;8.396;2024-01-30T07:39:29;8.80;;;5.60;;
16270;SDS011;8243;49.048;8.396;2024-01-30T07:41:54;6.47;;;5.40;;
16270;SDS011;8243;49.048;8.396;2024-01-30T07:44:20;6.93;;;5.50;;
16270;SDS011;8243;49.048;8.396;2024-01-30T07:46:46;6.97;;;5.10;;
16270;SDS011;8243;49.048;8.396;2024-01-30T07:49:11;7.97;;;6.07;;
16270;SDS011;8243;49.048;8.396;2024-01-30T07:51:39;7.57;;;5.53;;
16270;SDS011;8243;49.048;8.396;2024-01-30T07:54:04;6.97;;;5.07;;
16270;SDS011;8243;49.048;8.396;2024-01-30T07:56:30;6.00;;;5.10;;
16270;SDS011;8243;49.048;8.396;2024-01-30T07:58:55;6.67;;;5.00;;
16270;SDS011;8243;49.048;8.396;2024-01-30T08:01:21;8.67;;;5.23;;
16270;SDS011;8243;49.048;8.396;2024-01-30T08:03:46;8.33;;;4.80;;
16270;SDS011;8243;49.048;8.396;2024-01-30T08:06:12;5.43;;;4.87;;
16270;SDS011;8243;49.048;8.396;2024-01-30T08:08:38;5.87;;;4.93;;
16270;SDS011;8243;49.048;8.396;2024-01-30T08:11:03;9.33;;;5.20;;
16270;SDS011;8243;49.048;8.396;2024-01-30T08:13:29;7.57;;;5.47;;
16270;SDS011;8243;49.048;8.396;2024-01-30T08:15:54;6.10;;;5.20;;
16270;SDS011;8243;49.048;8.396;2024-01-30T08:18:20;7.33;;;4.77;;
16270;SDS011;8243;49.048;8.396;2024-01-30T08:20:46;6.73;;;5.13;;
16270;SDS011;8243;49.048;8.396;2024-01-30T08:23:11;5.70;;;4.90;;
16270;SDS011;8243;49.048;8.396;2024-01-30T08:25:38;9.93;;;6.23;;
16270;SDS011;8243;49.048;8.396;2024-01-30T08:28:04;7.43;;;5.73;;
16270;SDS011;8243;49.048;8.396;2024-01-30T08:30:29;6.67;;;5.60;;
16270;SDS011;8243;49.048;8.396;2024-01-30T08:32:55;8.53;;;6.70;;
16270;SDS011;8243;49.048;8.396;2024-01-30T08:35:20;9.83;;;7.23;;
16270;SDS011;8243;49.048;8.396;2024-01-30T08:37:46;8.27;;;6.33;;
16270;SDS011;8243;49.048;8.396;2024-01-30T08:40:11;11.23;;;7.30;;
16270;SDS011;8243;49.048;8.396;2024-01-30T08:42:37;9.17;;;7.50;;
16270;SDS011;8243;49.048;8.396;2024-01-30T08:45:03;8.97;;;6.67;;
16270;SDS011;8243;49.048;8.396;2024-01-30T08:47:29;9.23;;;6.67;;
16270;SDS011;8243;49.048;8.396;2024-01-30T08:49:55;7.23;;;6.10;;
16270;SDS011;8243;49.048;8.396;2024-01-30T08:52:21;9.83;;;6.10;;
16270;SDS011;8243;49.048;8.396;2024-01-30T08:54:46;7.50;;;6.27;;
16270;SDS011;8243;49.048;8.396;2024-01-30T08:57:12;8.03;;;5.83;;
16270;SDS011;8243;49.048;8.396;2024-01-30T08:59:37;8.93;;;6.67;;
16270;SDS011;8243;49.048;8.396;2024-01-30T09:02:03;6.77;;;5.60;;
16270;SDS011;8243;49.048;8.396;2024-01-30T09:04:30;7.40;;;5.73;;
16270;SDS011;8243;49.048;8.396;2024-01-30T09:06:55;6.73;;;5.90;;
16270;SDS011;8243;49.048;8.396;2024-01-30T09:09:21;8.53;;;5.80;;
16270;SDS011;8243;49.048;8.396;2024-01-30T09:11:47;7.80;;;5.50;;
16270;SDS011;8243;49.048;8.396;2024-01-30T09:14:12;6.70;;;6.10;;
16270;SDS011;8243;49.048;8.396;2024-01-30T09:16:38;6.80;;;6.10;;
16270;SDS011;8243;49.048;8.396;2024-01-30T09:19:03;6.73;;;5.73;;
16270;SDS011;8243;49.048;8.396;2024-01-30T09:21:31;7.03;;;5.40;;
16270;SDS011;8243;49.048;8.396;2024-01-30T09:24:01;7.03;;;5.90;;
16270;SDS011;8243;49.048;8.396;2024-01-30T09:26:30;9.00;;;6.67;;
16270;SDS011;8243;49.048;8.396;2024-01-30T09:28:56;8.10;;;6.83;;
16270;SDS011;8243;49.048;8.396;2024-01-30T09:31:22;7.50;;;6.53;;
16270;SDS011;8243;49.048;8.396;2024-01-30T09:33:48;9.50;;;7.50;;
16270;SDS011;8243;49.048;8.396;2024-01-30T09:36:16;7.23;;;6.40;;
16270;SDS011;8243;49.048;8.396;2024-01-30T09:38:43;8.10;;;6.73;;
16270;SDS011;8243;49.048;8.396;2024-01-30T09:41:09;9.37;;;7.07;;
16270;SDS011;8243;49.048;8.396;2024-01-30T09:43:36;9.63;;;7.27;;
16270;SDS011;8243;49.048;8.396;2024-01-30T09:46:03;9.87;;;8.07;;
16270;SDS011;8243;49.048;8.396;2024-01-30T09:48:30;7.33;;;6.57;;
16270;SDS011;8243;49.048;8.396;2024-01-30T09:50:58;9.90;;;7.03;;
16270;SDS011;8243;49.048;8.396;2024-01-30T09:53:24;9.93;;;7.13;;
16270;SDS011;8243;49.048;8.396;2024-01-30T09:55:50;12.00;;;8.43;;
16270;SDS011;8243;49.048;8.396;2024-01-30T09:58:16;9.47;;;8.13;;
16270;SDS011;8243;49.048;8.396;2024-01-30T10:00:42;11.30;;;8.60;;
16270;SDS011;8243;49.048;8.396;2024-01-30T10:03:08;15.67;;;10.03;;
16270;SDS011;8243;49.048;8.396;2024-01-30T10:05:34;12.30;;;9.67;;
16270;SDS011;8243;49.048;8.396;2024-01-30T10:08:05;14.00;;;10.67;;
16270;SDS011;8243;49.048;8.396;2024-01-30T10:10:31;12.13;;;9.90;;
16270;SDS011;8243;49.048;8.396;2024-01-30T10:12:57;11.70;;;9.73;;
16270;SDS011;8243;49.048;8.396;2024-01-30T10:15:23;10.00;;;8.77;;
16270;SDS011;8243;49.048;8.396;2024-01-30T10:17:53;10.03;;;8.40;;
16270;SDS011;8243;49.048;8.396;2024-01-30T10:20:18;9.83;;;8.63;;
16270;SDS011;8243;49.048;8.396;2024-01-30T10:22:44;11.20;;;10.00;;
16270;SDS011;8243;49.048;8.396;2024-01-30T10:25:10;10.90;;;9.77;;
16270;SDS011;8243;49.048;8.396;2024-01-30T10:27:36;11.43;;;10.10;;
16270;SDS011;8243;49.048;8.396;2024-01-30T10:30:04;12.70;;;10.93;;
16270;SDS011;8243;49.048;8.396;2024-01-30T10:32:30;11.30;;;9.50;;
16270;SDS011;8243;49.048;8.396;2024-01-30T10:34:56;11.30;;;10.10;;
16270;SDS011;8243;49.048;8.396;2024-01-30T10:37:22;12.47;;;10.60;;
16270;SDS011;8243;49.048;8.396;2024-01-30T10:39:50;13.13;;;10.43;;
16270;SDS011;8243;49.048;8.396;2024-01-30T10:42:18;12.57;;;10.30;;
16270;SDS011;8243;49.048;8.396;2024-01-30T10:44:57;13.33;;;10.97;;
16270;SDS011;8243;49.048;8.396;2024-01-30T10:47:28;13.23;;;10.83;;
16270;SDS011;8243;49.048;8.396;2024-01-30T10:49:54;15.57;;;12.33;;
16270;SDS011;8243;49.048;8.396;2024-01-30T10:52:21;12.17;;;10.60;;
16270;SDS011;8243;49.048;8.396;2024-01-30T10:54:49;13.60;;;11.67;;
16270;SDS011;8243;49.048;8.396;2024-01-30T10:57:16;11.67;;;10.47;;
16270;SDS011;8243;49.048;8.396;2024-01-30T10:59:42;14.50;;;12.13;;
16270;SDS011;8243;49.048;8.396;2024-01-30T11:02:09;14.53;;;11.87;;
16270;SDS011;8243;49.048;8.396;2024-01-30T11:04:38;12.77;;;11.47;;
16270;SDS011;8243;49.048;8.396;2024-01-30T11:07:19;14.00;;;11.40;;
16270;SDS011;8243;49.048;8.396;2024-01-30T11:09:52;13.93;;;11.77;;
16270;SDS011;8243;49.048;8.396;2024-01-30T11:12:25;13.57;;;12.03;;
16270;SDS011;8243;49.048;8.396;2024-01-30T11:15:13;13.30;;;11.87;;
16270;SDS011;8243;49.048;8.396;2024-01-30T11:17:42;14.73;;;11.93;;
16270;SDS011;8243;49.048;8.396;2024-01-30T11:20:12;14.47;;;11.47;;
16270;SDS011;8243;49.048;8.396;2024-01-30T11:22:45;15.17;;;11.83;;
16270;SDS011;8243;49.048;8.396;2024-01-30T11:25:12;13.43;;;12.03;;
16270;SDS011;8243;49.048;8.396;2024-01-30T11:27:43;14.60;;;12.07;;
16270;SDS011;8243;49.048;8.396;2024-01-30T11:30:10;13.50;;;11.47;;
16270;SDS011;8243;49.048;8.396;2024-01-30T11:32:36;14.30;;;11.63;;
16270;SDS011;8243;49.048;8.396;2024-01-30T11:35:05;13.50;;;12.10;;
16270;SDS011;8243;49.048;8.396;2024-01-30T11:37:31;14.40;;;10.93;;
16270;SDS011;8243;49.048;8.396;2024-01-30T11:39:57;14.53;;;11.37;;
16270;SDS011;8243;49.048;8.396;2024-01-30T11:42:23;15.90;;;12.17;;
16270;SDS011;8243;49.048;8.396;2024-01-30T11:44:53;12.43;;;11.13;;
16270;SDS011;8243;49.048;8.396;2024-01-30T11:47:19;15.03;;;11.50;;
16270;SDS011;8243;49.048;8.396;2024-01-30T11:49:44;12.60;;;11.13;;
16270;SDS011;8243;49.048;8.396;2024-01-30T11:52:12;15.87;;;11.17;;
16270;SDS011;8243;49.048;8.396;2024-01-30T11:54:41;13.87;;;10.97;;
16270;SDS011;8243;49.048;8.396;2024-01-30T11:57:07;14.10;;;10.77;;
16270;SDS011;8243;49.048;8.396;2024-01-30T11:59:34;16.47;;;11.73;;
16270;SDS011;8243;49.048;8.396;2024-01-30T12:01:59;13.83;;;10.73;;
16270;SDS011;8243;49.048;8.396;2024-01-30T12:04:27;12.43;;;10.73;;
16270;SDS011;8243;49.048;8.396;2024-01-30T12:06:54;12.13;;;10.83;;
16270;SDS011;8243;49.048;8.396;2024-01-30T12:09:20;15.90;;;11.40;;
16270;SDS011;8243;49.048;8.396;2024-01-30T12:11:48;13.57;;;11.33;;
16270;SDS011;8243;49.048;8.396;2024-01-30T12:14:17;13.27;;;11.53;;
16270;SDS011;8243;49.048;8.396;2024-01-30T12:16:47;13.13;;;11.07;;
16270;SDS011;8243;49.048;8.396;2024-01-30T12:19:20;13.73;;;9.87;;
16270;SDS011;8243;49.048;8.396;2024-01-30T12:21:47;11.40;;;9.90;;
16270;SDS011;8243;49.048;8.396;2024-01-30T12:24:18;11.43;;;10.03;;
16270;SDS011;8243;49.048;8.396;2024-01-30T12:26:43;11.87;;;10.63;;
16270;SDS011;8243;49.048;8.396;2024-01-30T12:29:09;19.73;;;13.60;;
16270;SDS011;8243;49.048;8.396;2024-01-30T12:31:35;23.80;;;15.83;;
16270;SDS011;8243;49.048;8.396;2024-01-30T12:34:00;15.90;;;12.20;;
16270;SDS011;8243;49.048;8.396;2024-01-30T12:36:26;15.90;;;11.80;;
16270;SDS011;8243;49.048;8.396;2024-01-30T12:38:55;13.50;;;11.57;;
16270;SDS011;8243;49.048;8.396;2024-01-30T12:41:23;12.33;;;10.67;;
16270;SDS011;8243;49.048;8.396;2024-01-30T12:43:53;12.67;;;10.63;;
16270;SDS011;8243;49.048;8.396;2024-01-30T12:46:19;12.57;;;10.53;;
16270;SDS011;8243;49.048;8.396;2024-01-30T12:48:44;11.57;;;10.10;;
16270;SDS011;8243;49.048;8.396;2024-01-30T12:51:10;11.10;;;10.00;;
16270;SDS011;8243;49.048;8.396;2024-01-30T12:53:36;13.00;;;9.90;;
16270;SDS011;8243;49.048;8.396;2024-01-30T12:56:02;12.60;;;10.00;;
16270;SDS011;8243;49.048;8.396;2024-01-30T12:58:27;17.03;;;9.70;;
16270;SDS011;8243;49.048;8.396;2024-01-30T13:00:53;11.10;;;9.37;;
16270;SDS011;8243;49.048;8.396;2024-01-30T13:03:19;10.63;;;9.07;;
16270;SDS011;8243;49.048;8.396;2024-01-30T13:05:45;10.37;;;9.10;;
16270;SDS011;8243;49.048;8.396;2024-01-30T13:08:10;13.00;;;9.47;;
16270;SDS011;8243;49.048;8.396;2024-01-30T13:10:36;13.63;;;9.27;;
16270;SDS011;8243;49.048;8.396;2024-01-30T13:13:01;9.90;;;8.60;;
16270;SDS011;8243;49.048;8.396;2024-01-30T13:15:27;9.90;;;8.53;;
16270;SDS011;8243;49.048;8.396;2024-01-30T13:17:53;12.10;;;8.87;;
16270;SDS011;8243;49.048;8.396;2024-01-30T13:20:19;10.17;;;8.50;;
16270;SDS011;8243;49.048;8.396;2024-01-30T13:22:47;12.00;;;9.37;;
16270;SDS011;8243;49.048;8.396;2024-01-30T13:25:14;13.70;;;8.97;;
16270;SDS011;8243;49.048;8.396;2024-01-30T13:27:40;9.87;;;8.27;;
16270;SDS011;8243;49.048;8.396;2024-01-30T13:30:06;11.60;;;9.00;;
16270;SDS011;8243;49.048;8.396;2024-01-30T13:32:33;9.27;;;8.23;;
16270;SDS011;8243;49.048;8.396;2024-01-30T13:34:58;10.60;;;8.80;;
16270;SDS011;8243;49.048;8.396;2024-01-30T13:37:24;11.23;;;9.30;;
16270;SDS011;8243;49.048;8.396;2024-01-30T13:39:50;11.33;;;10.07;;
16270;SDS011;8243;49.048;8.396;2024-01-30T13:42:15;10.03;;;9.03;;
16270;SDS011;8243;49.048;8.396;2024-01-30T13:44:41;9.87;;;8.50;;
16270;SDS011;8243;49.048;8.396;2024-01-30T13:47:08;10.23;;;8.90;;
16270;SDS011;8243;49.048;8.396;2024-01-30T13:49:34;9.40;;;8.17;;
16270;SDS011;8243;49.048;8.396;2024-01-30T13:52:00;10.97;;;8.13;;
16270;SDS011;8243;49.048;8.396;2024-01-30T13:54:25;9.90;;;8.13;;
16270;SDS011;8243;49.048;8.396;2024-01-30T13:56:51;9.20;;;7.77;;
16270;SDS011;8243;49.048;8.396;2024-01-30T13:59:17;10.57;;;8.47;;
16270;SDS011;8243;49.048;8.396;2024-01-30T14:01:48;11.87;;;8.30;;
16270;SDS011;8243;49.048;8.396;2024-01-30T14:04:14;10.67;;;8.50;;
16270;SDS011;8243;49.048;8.396;2024-01-30T14:06:42;17.20;;;10.40;;
16270;SDS011;8243;49.048;8.396;2024-01-30T14:09:08;15.40;;;9.23;;
16270;SDS011;8243;49.048;8.396;2024-01-30T14:11:35;17.80;;;10.43;;
16270;SDS011;8243;49.048;8.396;2024-01-30T14:14:00;12.07;;;8.40;;
16270;SDS011;8243;49.048;8.396;2024-01-30T14:16:26;11.03;;;8.97;;
16270;SDS011;8243;49.048;8.396;2024-01-30T14:18:51;12.77;;;8.40;;
16270;SDS011;8243;49.048;8.396;2024-01-30T14:21:17;10.97;;;7.47;;
16270;SDS011;8243;49.048;8.396;2024-01-30T14:23:42;9.13;;;6.80;;
16270;SDS011;8243;49.048;8.396;2024-01-30T14:26:08;14.37;;;7.37;;
16270;SDS011;8243;49.048;8.396;2024-01-30T14:28:33;10.60;;;7.33;;
16270;SDS011;8243;49.048;8.396;2024-01-30T14:30:59;7.37;;;6.47;;
16270;SDS011;8243;49.048;8.396;2024-01-30T14:33:25;10.40;;;6.47;;
16270;SDS011;8243;49.048;8.396;2024-01-30T14:35:50;7.50;;;6.80;;
16270;SDS011;8243;49.048;8.396;2024-01-30T14:38:16;10.27;;;8.10;;
16270;SDS011;8243;49.048;8.396;2024-01-30T14:40:42;9.20;;;6.60;;
16270;SDS011;8243;49.048;8.396;2024-01-30T14:43:07;9.03;;;6.90;;
16270;SDS011;8243;49.048;8.396;2024-01-30T14:45:33;10.83;;;7.20;;
16270;SDS011;8243;49.048;8.396;2024-01-30T14:47:58;8.70;;;6.17;;
16270;SDS011;8243;49.048;8.396;2024-01-30T14:50:24;7.83;;;6.67;;